createdAt,value
2023-05-22T00:01:38.557Z,100010.31
2023-05-22T00:04:24.750Z,100001.97
2023-05-22T00:06:57.751Z,100025.13
2023-05-22T00:09:52.842Z,100050.31
2023-05-22T00:15:15.680Z,100036.94
2023-05-22T00:17:46.630Z,100053.63
2023-05-22T00:20:27.061Z,100028.78
2023-05-22T00:22:57.830Z,100024.00
2023-05-22T00:25:31.899Z,100005.59
2023-05-22T00:28:04.346Z,100019.09
2023-05-22T00:30:45.925Z,100010.06
2023-05-22T00:33:27.413Z,100020.50
2023-05-22T00:36:10.128Z,100013.72
2023-05-22T00:39:03.186Z,100023.06
2023-05-22T00:41:41.576Z,100050.94
2023-05-22T00:47:23.753Z,100021.56
2023-05-22T00:50:11.446Z,100053.03
2023-05-22T00:52:56.311Z,100011.88
2023-05-22T00:55:26.705Z,100038.78
2023-05-22T01:01:25.992Z,100054.09
2023-05-22T01:04:41.381Z,100035.09
2023-05-22T01:07:24.499Z,100063.81
2023-05-22T01:09:59.773Z,100021.53
2023-05-22T01:13:25.499Z,100060.56
2023-05-22T01:20:09.731Z,100066.88
2023-05-22T01:23:02.972Z,100056.47
2023-05-22T01:26:06.135Z,100075.78
2023-05-22T01:28:51.632Z,100083.19
2023-05-22T01:31:38.997Z,100073.50
2023-05-22T01:34:52.493Z,100057.63
2023-05-22T01:37:24.809Z,100030.44
2023-05-22T01:42:43.086Z,100031.97
2023-05-22T01:45:37.787Z,100051.25
2023-05-22T01:48:14.055Z,100045.72
2023-05-22T01:50:57.881Z,100069.59
2023-05-22T01:53:51.600Z,100071.44
2023-05-22T01:56:35.539Z,100044.59
2023-05-22T01:59:43.758Z,100076.19
2023-05-22T02:02:19.485Z,100054.06
2023-05-22T02:04:54.702Z,100076.63
2023-05-22T02:07:25.295Z,100044.94
2023-05-22T02:10:52.276Z,100087.31
2023-05-22T02:13:30.513Z,100058.47
2023-05-22T02:16:09.868Z,100082.63
2023-05-22T02:18:38.564Z,100088.91
2023-05-22T02:21:33.907Z,100054.09
2023-05-22T02:24:07.162Z,100081.56
2023-05-22T02:30:05.811Z,100084.13
2023-05-22T02:32:42.091Z,100062.09
2023-05-22T02:39:17.345Z,100087.50
2023-05-22T02:44:42.288Z,100059.19
2023-05-22T02:47:23.991Z,100073.41
2023-05-22T02:50:02.991Z,100061.56
2023-05-22T02:52:42.007Z,100092.41
2023-05-22T02:55:38.110Z,100078.06
2023-05-22T03:01:31.005Z,100063.38
2023-05-22T03:04:01.069Z,100100.22
2023-05-22T03:06:40.328Z,100079.94
2023-05-22T03:09:25.423Z,100087.69
2023-05-22T03:12:01.998Z,100070.28
2023-05-22T03:14:55.760Z,100071.38
2023-05-22T03:17:49.295Z,100068.56
2023-05-22T03:20:30.194Z,100071.03
2023-05-22T03:23:08.604Z,100094.50
2023-05-22T03:26:08.221Z,100103.19
2023-05-22T03:28:47.275Z,100087.44
2023-05-22T03:31:42.732Z,100100.16
2023-05-22T03:34:34.962Z,100095.31
2023-05-22T03:40:06.242Z,100081.88
2023-05-22T03:42:45.162Z,100093.09
2023-05-22T03:45:31.792Z,100117.47
2023-05-22T03:47:59.706Z,100103.06
2023-05-22T03:50:27.312Z,100112.63
2023-05-22T03:58:34.969Z,100105.59
2023-05-22T04:01:28.300Z,100107.22
2023-05-22T04:04:01.163Z,100114.44
2023-05-22T04:06:33.277Z,100104.75
2023-05-22T04:09:04.940Z,100112.41
2023-05-22T04:17:57.165Z,100105.69
2023-05-22T04:21:08.051Z,100080.81
2023-05-22T04:23:51.492Z,100110.69
2023-05-22T04:26:26.373Z,100103.41
2023-05-22T04:28:57.262Z,100094.19
2023-05-22T04:31:29.279Z,100128.38
2023-05-22T04:34:41.492Z,100119.56
2023-05-22T04:37:15.591Z,100120.13
2023-05-22T04:39:54.997Z,100113.31
2023-05-22T04:43:05.125Z,100125.34
2023-05-22T04:45:49.482Z,100092.22
2023-05-22T04:48:28.300Z,100116.94
2023-05-22T04:51:35.497Z,100115.06
2023-05-22T04:54:33.063Z,100107.84
2023-05-22T04:57:32.220Z,100105.56
2023-05-22T05:00:33.261Z,100119.91
2023-05-22T05:03:35.134Z,100125.06
2023-05-22T05:06:14.598Z,100113.31
2023-05-22T05:08:52.277Z,100122.19
2023-05-22T05:11:52.114Z,100136.03
2023-05-22T05:14:53.833Z,100110.22
2023-05-22T05:17:33.465Z,100132.66
2023-05-22T05:20:16.640Z,100109.00
2023-05-22T05:23:01.519Z,100139.28
2023-05-22T05:26:05.414Z,100127.53
2023-05-22T05:28:45.565Z,100126.94
2023-05-22T05:32:01.904Z,100123.72
2023-05-22T05:37:44.076Z,100113.84
2023-05-22T05:40:29.212Z,100111.34
2023-05-22T05:46:33.320Z,100105.28
2023-05-22T05:49:35.995Z,100104.94
2023-05-22T05:53:10.770Z,100115.16
2023-05-22T05:55:42.888Z,100129.06
2023-05-22T05:58:13.816Z,100113.16
2023-05-22T06:00:53.499Z,100105.28
2023-05-22T06:03:24.160Z,100130.84
2023-05-22T06:05:58.365Z,100099.22
2023-05-22T06:08:29.819Z,100101.34
2023-05-22T06:11:02.261Z,100111.50
2023-05-22T06:13:45.857Z,100112.38
2023-05-22T06:16:17.259Z,100114.06
2023-05-22T06:18:51.967Z,100123.38
2023-05-22T06:21:29.542Z,100104.28
2023-05-22T06:23:57.020Z,100138.00
2023-05-22T06:26:26.611Z,100124.22
2023-05-22T06:28:55.550Z,100134.00
2023-05-22T06:31:31.040Z,100133.03
2023-05-22T06:34:11.140Z,100114.78
2023-05-22T06:36:38.873Z,100132.53
2023-05-22T06:39:07.245Z,100122.53
2023-05-22T06:41:37.682Z,100126.28
2023-05-22T06:44:17.135Z,100118.94
2023-05-22T06:49:58.217Z,100116.25
2023-05-22T06:52:33.031Z,100100.44
2023-05-22T06:58:20.137Z,100099.50
2023-05-22T07:08:46.651Z,100117.44
2023-05-22T07:12:01.038Z,100112.66
2023-05-22T07:14:35.538Z,100121.81
2023-05-22T07:17:10.111Z,100093.34
2023-05-22T07:19:37.713Z,100138.44
2023-05-22T07:22:07.809Z,100096.72
2023-05-22T07:24:58.156Z,100101.53
2023-05-22T07:27:38.509Z,100134.47
2023-05-22T07:30:09.161Z,100117.66
2023-05-22T07:32:49.285Z,100123.19
2023-05-22T07:35:24.129Z,100100.13
2023-05-22T07:37:52.596Z,100129.63
2023-05-22T07:40:25.747Z,100120.44
2023-05-22T07:43:04.081Z,100116.97
2023-05-22T07:45:38.890Z,100103.63
2023-05-22T07:48:50.310Z,100126.34
2023-05-22T07:51:09.119Z,100101.66
2023-05-22T07:53:48.170Z,100120.16
2023-05-22T08:00:11.529Z,100096.47
2023-05-22T08:14:12.590Z,100108.19
2023-05-22T08:17:05.843Z,100136.59
2023-05-22T08:24:14.874Z,100103.63
2023-05-22T08:26:58.422Z,100100.63
2023-05-22T08:29:59.804Z,100117.88
2023-05-22T08:33:13.639Z,100099.25
2023-05-22T08:47:49.049Z,100104.06
2023-05-22T09:12:58.058Z,100104.28
2023-05-22T09:18:54.769Z,100109.28
2023-05-22T09:22:13.546Z,100074.69
2023-05-22T09:25:46.150Z,100113.22
2023-05-22T09:37:09.010Z,100102.94
2023-05-22T09:40:01.896Z,100080.31
2023-05-22T09:47:59.406Z,100074.13
2023-05-22T10:19:31.203Z,100090.47
2023-05-22T10:25:57.186Z,100051.75
2023-05-22T10:29:09.043Z,100051.44
2023-05-22T10:57:34.845Z,100064.84
2023-05-22T13:18:33.156Z,99965.75
2023-05-22T15:00:31.181Z,99925.16
2023-05-22T15:56:02.945Z,99909.19
2023-05-22T16:06:41.881Z,99919.97
2023-05-22T16:28:13.987Z,99927.69
2023-05-22T16:53:48.690Z,99950.19
2023-05-22T18:44:05.392Z,99925.09
2023-05-22T19:47:01.607Z,99908.97
2023-05-22T20:25:00.822Z,99908.56
2023-05-22T20:27:29.029Z,99918.16
2023-05-22T20:29:59.967Z,99926.13
2023-05-22T20:50:41.895Z,99950.28
2023-05-22T21:07:23.577Z,99910.56
2023-05-22T21:09:54.321Z,99942.97
2023-05-22T21:23:24.955Z,99919.47
2023-05-22T21:29:28.143Z,99918.06
2023-05-22T21:31:56.340Z,99921.47
2023-05-22T21:34:30.831Z,99926.66
2023-05-22T21:37:21.578Z,99921.09
2023-05-22T21:50:23.876Z,99938.16
2023-05-22T21:52:57.790Z,99901.38
2023-05-22T21:55:25.948Z,99918.59
2023-05-22T21:57:53.945Z,99916.06
2023-05-22T22:00:30.945Z,99924.75
2023-05-22T22:02:58.600Z,99926.75
2023-05-22T22:09:00.598Z,99946.38
2023-05-22T22:18:22.454Z,99927.69
2023-05-22T22:38:57.776Z,99939.19
2023-05-22T22:41:26.519Z,99928.53
2023-05-22T22:44:03.982Z,99931.84
2023-05-22T22:46:51.344Z,99910.44
2023-05-22T22:49:21.967Z,99910.44
2023-05-22T22:51:51.991Z,99931.44
2023-05-22T23:01:32.127Z,99947.84
2023-05-22T23:04:00.243Z,99943.03
2023-05-22T23:06:38.579Z,99913.63
2023-05-22T23:10:06.315Z,99940.41
2023-05-22T23:13:08.420Z,99944.63
2023-05-22T23:15:36.198Z,99931.34
2023-05-22T23:18:17.157Z,99949.72
2023-05-22T23:21:17.560Z,99952.28
2023-05-22T23:23:46.224Z,99922.69
2023-05-22T23:26:14.386Z,99915.72
2023-05-22T23:28:46.987Z,99906.38
2023-05-22T23:31:14.889Z,99928.97
2023-05-22T23:33:43.105Z,99907.22
2023-05-22T23:36:10.907Z,99920.41
2023-05-22T23:38:44.472Z,99906.09
2023-05-22T23:41:12.091Z,99921.63
2023-05-22T23:43:44.153Z,99921.28
